sensor_id;sensor_type;location;lat;lon;timestamp;pressure;altitude;pressure_sealevel;temperature;humidity
46944;BME280;32678;43.852;25.952;2024-01-07T00:00:37;99865.16;;;12.00;73.99
46944;BME280;32678;43.852;25.952;2024-01-07T00:05:36;99867.09;;;11.96;74.48
46944;BME280;32678;43.852;25.952;2024-01-07T00:10:33;99879.00;;;11.86;73.36
46944;BME280;32678;43.852;25.952;2024-01-07T00:15:29;99882.09;;;11.60;73.01
46944;BME280;32678;43.852;25.952;2024-01-07T00:20:27;99875.84;;;11.45;73.55
46944;BME280;32678;43.852;25.952;2024-01-07T00:25:24;99861.56;;;11.51;74.02
46944;BME280;32678;43.852;25.952;2024-01-07T00:30:21;99854.22;;;11.57;74.46
46944;BME280;32678;43.852;25.952;2024-01-07T00:35:17;99849.31;;;12.01;76.98
46944;BME280;32678;43.852;25.952;2024-01-07T00:40:14;99850.03;;;12.83;75.03
46944;BME280;32678;43.852;25.952;2024-01-07T00:45:12;99840.91;;;13.20;72.71
46944;BME280;32678;43.852;25.952;2024-01-07T00:50:09;99829.38;;;13.81;70.63
46944;BME280;32678;43.852;25.952;2024-01-07T00:55:05;99829.56;;;13.78;70.34
46944;BME280;32678;43.852;25.952;2024-01-07T01:00:04;99829.50;;;13.50;67.46
46944;BME280;32678;43.852;25.952;2024-01-07T01:05:01;99820.91;;;13.90;69.67
46944;BME280;32678;43.852;25.952;2024-01-07T01:09:58;99808.66;;;14.03;69.34
46944;BME280;32678;43.852;25.952;2024-01-07T01:14:55;99796.59;;;14.13;69.01
46944;BME280;32678;43.852;25.952;2024-01-07T01:19:51;99795.63;;;14.43;67.94
46944;BME280;32678;43.852;25.952;2024-01-07T01:24:49;99787.28;;;14.22;68.44
46944;BME280;32678;43.852;25.952;2024-01-07T01:29:47;99770.50;;;14.23;68.60
46944;BME280;32678;43.852;25.952;2024-01-07T01:34:43;99754.91;;;14.47;67.55
46944;BME280;32678;43.852;25.952;2024-01-07T01:39:40;99758.09;;;14.66;66.82
46944;BME280;32678;43.852;25.952;2024-01-07T01:44:37;99765.25;;;14.64;66.92
46944;BME280;32678;43.852;25.952;2024-01-07T01:49:34;99760.03;;;14.89;65.70
46944;BME280;32678;43.852;25.952;2024-01-07T01:54:34;99760.91;;;15.02;65.42
46944;BME280;32678;43.852;25.952;2024-01-07T01:59:31;99756.47;;;15.15;64.73
46944;BME280;32678;43.852;25.952;2024-01-07T02:04:29;99740.53;;;15.04;65.16
46944;BME280;32678;43.852;25.952;2024-01-07T02:09:25;99746.91;;;15.14;65.00
46944;BME280;32678;43.852;25.952;2024-01-07T02:14:22;99733.69;;;15.14;64.62
46944;BME280;32678;43.852;25.952;2024-01-07T02:19:21;99744.22;;;14.89;65.69
46944;BME280;32678;43.852;25.952;2024-01-07T02:24:19;99727.88;;;15.09;64.47
46944;BME280;32678;43.852;25.952;2024-01-07T02:29:15;99744.44;;;14.59;66.36
46944;BME280;32678;43.852;25.952;2024-01-07T02:34:12;99726.81;;;14.60;66.34
46944;BME280;32678;43.852;25.952;2024-01-07T02:39:09;99729.06;;;14.39;67.18
46944;BME280;32678;43.852;25.952;2024-01-07T02:44:06;99721.25;;;14.38;67.25
46944;BME280;32678;43.852;25.952;2024-01-07T02:49:06;99695.97;;;14.33;67.80
46944;BME280;32678;43.852;25.952;2024-01-07T02:54:03;99697.75;;;14.47;67.34
46944;BME280;32678;43.852;25.952;2024-01-07T02:58:59;99688.56;;;14.40;68.04
46944;BME280;32678;43.852;25.952;2024-01-07T03:03:56;99680.91;;;14.62;67.71
46944;BME280;32678;43.852;25.952;2024-01-07T03:08:53;99664.63;;;14.43;68.96
46944;BME280;32678;43.852;25.952;2024-01-07T03:13:50;99650.81;;;14.25;69.37
46944;BME280;32678;43.852;25.952;2024-01-07T03:18:47;99651.69;;;14.26;69.66
46944;BME280;32678;43.852;25.952;2024-01-07T03:23:44;99656.03;;;14.13;70.35
46944;BME280;32678;43.852;25.952;2024-01-07T03:28:40;99641.28;;;14.10;70.62
46944;BME280;32678;43.852;25.952;2024-01-07T03:33:37;99628.94;;;14.11;70.76
46944;BME280;32678;43.852;25.952;2024-01-07T03:38:34;99624.63;;;14.10;70.67
46944;BME280;32678;43.852;25.952;2024-01-07T03:43:31;99635.91;;;14.12;70.59
46944;BME280;32678;43.852;25.952;2024-01-07T03:48:28;99629.38;;;14.17;70.32
46944;BME280;32678;43.852;25.952;2024-01-07T03:53:24;99619.84;;;14.02;70.91
46944;BME280;32678;43.852;25.952;2024-01-07T03:58:21;99612.13;;;13.99;71.59
46944;BME280;32678;43.852;25.952;2024-01-07T04:03:18;99608.81;;;14.37;70.73
46944;BME280;32678;43.852;25.952;2024-01-07T04:08:15;99605.16;;;14.25;71.92
46944;BME280;32678;43.852;25.952;2024-01-07T04:13:11;99597.03;;;14.28;73.79
46944;BME280;32678;43.852;25.952;2024-01-07T04:18:08;99576.63;;;14.05;76.45
46944;BME280;32678;43.852;25.952;2024-01-07T04:23:05;99580.66;;;13.57;80.75
46944;BME280;32678;43.852;25.952;2024-01-07T04:28:02;99560.78;;;13.65;81.93
46944;BME280;32678;43.852;25.952;2024-01-07T04:32:59;99553.22;;;13.73;82.59
46944;BME280;32678;43.852;25.952;2024-01-07T04:37:56;99557.00;;;13.69;83.76
46944;BME280;32678;43.852;25.952;2024-01-07T04:42:53;99563.97;;;13.70;84.81
46944;BME280;32678;43.852;25.952;2024-01-07T04:47:50;99549.34;;;13.79;85.17
46944;BME280;32678;43.852;25.952;2024-01-07T04:52:46;99554.72;;;13.77;84.96
46944;BME280;32678;43.852;25.952;2024-01-07T04:57:43;99524.56;;;14.08;83.29
46944;BME280;32678;43.852;25.952;2024-01-07T05:02:40;99518.03;;;14.01;83.99
46944;BME280;32678;43.852;25.952;2024-01-07T05:07:37;99498.09;;;13.97;84.64
46944;BME280;32678;43.852;25.952;2024-01-07T05:12:34;99485.94;;;13.95;84.87
46944;BME280;32678;43.852;25.952;2024-01-07T05:17:30;99477.19;;;13.94;85.15
46944;BME280;32678;43.852;25.952;2024-01-07T05:22:27;99465.72;;;14.08;85.01
46944;BME280;32678;43.852;25.952;2024-01-07T05:27:24;99472.06;;;14.05;85.00
46944;BME280;32678;43.852;25.952;2024-01-07T05:32:21;99452.34;;;14.23;83.33
46944;BME280;32678;43.852;25.952;2024-01-07T05:37:17;99441.50;;;14.15;83.14
46944;BME280;32678;43.852;25.952;2024-01-07T05:42:15;99439.50;;;14.31;82.72
46944;BME280;32678;43.852;25.952;2024-01-07T05:47:11;99450.03;;;14.06;84.09
46944;BME280;32678;43.852;25.952;2024-01-07T05:52:08;99424.09;;;13.87;84.80
46944;BME280;32678;43.852;25.952;2024-01-07T05:57:04;99439.47;;;13.94;85.36
46944;BME280;32678;43.852;25.952;2024-01-07T06:02:02;99423.56;;;14.08;85.40
46944;BME280;32678;43.852;25.952;2024-01-07T06:06:59;99416.91;;;13.77;87.10
46944;BME280;32678;43.852;25.952;2024-01-07T06:11:56;99401.94;;;13.77;87.30
46944;BME280;32678;43.852;25.952;2024-01-07T06:16:52;99386.94;;;13.65;88.17
46944;BME280;32678;43.852;25.952;2024-01-07T06:21:50;99364.41;;;13.74;87.78
46944;BME280;32678;43.852;25.952;2024-01-07T06:26:46;99368.50;;;13.53;88.59
46944;BME280;32678;43.852;25.952;2024-01-07T06:31:43;99365.03;;;13.52;88.93
46944;BME280;32678;43.852;25.952;2024-01-07T06:36:40;99356.72;;;13.58;88.37
46944;BME280;32678;43.852;25.952;2024-01-07T06:41:38;99350.63;;;13.58;88.66
46944;BME280;32678;43.852;25.952;2024-01-07T06:46:35;99344.38;;;13.46;89.16
46944;BME280;32678;43.852;25.952;2024-01-07T06:51:31;99344.81;;;13.53;88.99
46944;BME280;32678;43.852;25.952;2024-01-07T06:56:28;99349.09;;;13.54;88.71
46944;BME280;32678;43.852;25.952;2024-01-07T07:01:25;99340.56;;;13.50;88.37
46944;BME280;32678;43.852;25.952;2024-01-07T07:06:22;99335.84;;;13.55;87.78
46944;BME280;32678;43.852;25.952;2024-01-07T07:11:20;99318.78;;;13.61;87.88
46944;BME280;32678;43.852;25.952;2024-01-07T07:16:16;99333.31;;;13.54;87.48
46944;BME280;32678;43.852;25.952;2024-01-07T07:21:14;99337.63;;;13.42;87.91
46944;BME280;32678;43.852;25.952;2024-01-07T07:26:10;99318.69;;;13.62;86.87
46944;BME280;32678;43.852;25.952;2024-01-07T07:31:07;99332.19;;;13.58;86.77
46944;BME280;32678;43.852;25.952;2024-01-07T07:36:04;99322.38;;;13.72;85.94
46944;BME280;32678;43.852;25.952;2024-01-07T07:41:01;99310.88;;;13.61;86.33
46944;BME280;32678;43.852;25.952;2024-01-07T07:45:58;99324.06;;;13.86;85.19
46944;BME280;32678;43.852;25.952;2024-01-07T07:50:55;99341.34;;;13.77;85.33
46944;BME280;32678;43.852;25.952;2024-01-07T07:55:52;99353.91;;;13.86;83.45
46944;BME280;32678;43.852;25.952;2024-01-07T08:00:49;99350.19;;;13.89;83.18
46944;BME280;32678;43.852;25.952;2024-01-07T08:05:45;99344.28;;;14.11;80.75
46944;BME280;32678;43.852;25.952;2024-01-07T08:10:42;99338.63;;;13.92;81.54
46944;BME280;32678;43.852;25.952;2024-01-07T08:15:39;99328.91;;;13.92;81.28
46944;BME280;32678;43.852;25.952;2024-01-07T08:20:36;99328.47;;;13.98;80.83
46944;BME280;32678;43.852;25.952;2024-01-07T08:25:33;99317.44;;;13.80;80.39
46944;BME280;32678;43.852;25.952;2024-01-07T08:30:29;99340.81;;;13.98;80.23
46944;BME280;32678;43.852;25.952;2024-01-07T08:35:26;99336.38;;;14.11;78.85
46944;BME280;32678;43.852;25.952;2024-01-07T08:40:24;99332.34;;;14.43;75.39
46944;BME280;32678;43.852;25.952;2024-01-07T08:45:21;99335.19;;;14.27;72.48
46944;BME280;32678;43.852;25.952;2024-01-07T08:50:18;99322.50;;;13.96;73.75
46944;BME280;32678;43.852;25.952;2024-01-07T08:55:14;99322.59;;;14.07;72.84
46944;BME280;32678;43.852;25.952;2024-01-07T09:00:12;99320.53;;;14.23;71.09
46944;BME280;32678;43.852;25.952;2024-01-07T09:05:09;99314.63;;;14.32;70.62
46944;BME280;32678;43.852;25.952;2024-01-07T09:10:08;99328.88;;;14.43;69.87
46944;BME280;32678;43.852;25.952;2024-01-07T09:15:06;99313.06;;;14.30;70.40
46944;BME280;32678;43.852;25.952;2024-01-07T09:20:05;99312.72;;;14.47;69.07
46944;BME280;32678;43.852;25.952;2024-01-07T09:25:04;99311.47;;;14.40;67.39
46944;BME280;32678;43.852;25.952;2024-01-07T09:30:01;99302.25;;;13.97;66.47
46944;BME280;32678;43.852;25.952;2024-01-07T09:34:58;99304.63;;;14.38;64.87
46944;BME280;32678;43.852;25.952;2024-01-07T09:45:26;99301.69;;;14.17;64.93
46944;BME280;32678;43.852;25.952;2024-01-07T09:50:22;99310.16;;;13.97;66.00
46944;BME280;32678;43.852;25.952;2024-01-07T09:55:21;99305.72;;;13.84;67.66
46944;BME280;32678;43.852;25.952;2024-01-07T10:00:18;99332.81;;;13.74;71.13
46944;BME280;32678;43.852;25.952;2024-01-07T10:05:17;99358.91;;;13.52;75.66
46944;BME280;32678;43.852;25.952;2024-01-07T10:10:20;99366.00;;;12.42;80.80
46944;BME280;32678;43.852;25.952;2024-01-07T10:15:17;99379.03;;;11.73;84.92
46944;BME280;32678;43.852;25.952;2024-01-07T10:20:13;99385.38;;;11.39;87.54
46944;BME280;32678;43.852;25.952;2024-01-07T10:25:10;99376.09;;;11.34;88.29
46944;BME280;32678;43.852;25.952;2024-01-07T10:30:07;99375.88;;;11.22;89.93
46944;BME280;32678;43.852;25.952;2024-01-07T10:35:05;99367.81;;;11.55;88.90
46944;BME280;32678;43.852;25.952;2024-01-07T10:40:18;99361.75;;;11.69;88.49
46944;BME280;32678;43.852;25.952;2024-01-07T10:45:22;99360.56;;;11.89;87.96
46944;BME280;32678;43.852;25.952;2024-01-07T10:50:19;99359.84;;;11.87;88.10
46944;BME280;32678;43.852;25.952;2024-01-07T10:55:17;99354.38;;;11.76;89.36
46944;BME280;32678;43.852;25.952;2024-01-07T11:00:14;99341.22;;;11.61;90.33
46944;BME280;32678;43.852;25.952;2024-01-07T11:05:17;99341.16;;;11.77;89.44
46944;BME280;32678;43.852;25.952;2024-01-07T11:10:18;99342.34;;;11.71;89.11
46944;BME280;32678;43.852;25.952;2024-01-07T11:20:28;99341.34;;;11.88;87.31
46944;BME280;32678;43.852;25.952;2024-01-07T11:25:29;99336.22;;;12.01;86.29
46944;BME280;32678;43.852;25.952;2024-01-07T11:30:27;99336.78;;;11.92;85.25
46944;BME280;32678;43.852;25.952;2024-01-07T11:40:37;99348.41;;;12.02;83.17
46944;BME280;32678;43.852;25.952;2024-01-07T11:45:33;99347.72;;;12.12;82.86
46944;BME280;32678;43.852;25.952;2024-01-07T11:50:30;99344.81;;;12.17;82.51
46944;BME280;32678;43.852;25.952;2024-01-07T11:55:26;99343.53;;;12.10;82.48
46944;BME280;32678;43.852;25.952;2024-01-07T12:00:24;99339.13;;;11.82;83.61
46944;BME280;32678;43.852;25.952;2024-01-07T12:05:21;99343.28;;;11.70;83.27
46944;BME280;32678;43.852;25.952;2024-01-07T12:10:18;99340.06;;;11.95;82.51
46944;BME280;32678;43.852;25.952;2024-01-07T12:15:15;99343.78;;;12.20;81.20
46944;BME280;32678;43.852;25.952;2024-01-07T12:20:14;99346.31;;;12.35;80.67
46944;BME280;32678;43.852;25.952;2024-01-07T12:25:11;99344.59;;;12.48;80.40
46944;BME280;32678;43.852;25.952;2024-01-07T12:30:08;99344.66;;;12.61;79.42
46944;BME280;32678;43.852;25.952;2024-01-07T12:35:06;99345.28;;;12.79;79.19
46944;BME280;32678;43.852;25.952;2024-01-07T12:40:06;99346.69;;;12.84;78.88
46944;BME280;32678;43.852;25.952;2024-01-07T12:45:05;99348.34;;;12.85;78.87
46944;BME280;32678;43.852;25.952;2024-01-07T12:50:02;99357.03;;;13.00;78.26
46944;BME280;32678;43.852;25.952;2024-01-07T12:55:00;99358.44;;;13.06;77.86
46944;BME280;32678;43.852;25.952;2024-01-07T12:59:57;99362.50;;;13.11;77.25
46944;BME280;32678;43.852;25.952;2024-01-07T13:04:54;99372.06;;;13.12;76.76
46944;BME280;32678;43.852;25.952;2024-01-07T13:09:53;99361.25;;;13.17;76.43
46944;BME280;32678;43.852;25.952;2024-01-07T13:14:50;99372.31;;;13.22;76.53
46944;BME280;32678;43.852;25.952;2024-01-07T13:19:53;99372.22;;;13.23;75.80
46944;BME280;32678;43.852;25.952;2024-01-07T13:24:51;99379.91;;;13.26;75.87
46944;BME280;32678;43.852;25.952;2024-01-07T13:29:47;99381.38;;;13.30;75.73
46944;BME280;32678;43.852;25.952;2024-01-07T13:34:44;99373.50;;;13.30;75.20
46944;BME280;32678;43.852;25.952;2024-01-07T13:39:41;99374.44;;;13.29;75.38
46944;BME280;32678;43.852;25.952;2024-01-07T13:44:38;99377.03;;;13.17;76.01
46944;BME280;32678;43.852;25.952;2024-01-07T13:49:42;99373.03;;;12.97;77.47
46944;BME280;32678;43.852;25.952;2024-01-07T13:54:39;99376.31;;;12.74;79.07
46944;BME280;32678;43.852;25.952;2024-01-07T13:59:36;99372.31;;;12.81;79.32
46944;BME280;32678;43.852;25.952;2024-01-07T14:04:33;99378.78;;;12.34;82.23
46944;BME280;32678;43.852;25.952;2024-01-07T14:09:30;99378.41;;;12.12;83.98
46944;BME280;32678;43.852;25.952;2024-01-07T14:14:27;99377.09;;;11.91;84.79
46944;BME280;32678;43.852;25.952;2024-01-07T14:19:24;99388.19;;;11.96;85.62
46944;BME280;32678;43.852;25.952;2024-01-07T14:24:21;99392.94;;;12.03;85.70
46944;BME280;32678;43.852;25.952;2024-01-07T14:29:18;99393.00;;;11.73;87.71
46944;BME280;32678;43.852;25.952;2024-01-07T14:34:25;99400.19;;;11.70;88.42
46944;BME280;32678;43.852;25.952;2024-01-07T14:39:23;99410.94;;;11.51;89.28
46944;BME280;32678;43.852;25.952;2024-01-07T14:44:23;99415.56;;;11.16;90.21
46944;BME280;32678;43.852;25.952;2024-01-07T14:49:35;99410.00;;;11.07;90.20
46944;BME280;32678;43.852;25.952;2024-01-07T14:54:33;99404.66;;;11.08;90.17
46944;BME280;32678;43.852;25.952;2024-01-07T14:59:31;99395.16;;;11.21;88.91
46944;BME280;32678;43.852;25.952;2024-01-07T15:04:28;99423.03;;;10.93;90.31
46944;BME280;32678;43.852;25.952;2024-01-07T15:09:25;99424.03;;;10.90;90.01
46944;BME280;32678;43.852;25.952;2024-01-07T15:14:22;99429.94;;;10.62;91.08
46944;BME280;32678;43.852;25.952;2024-01-07T15:19:19;99438.88;;;10.42;92.39
46944;BME280;32678;43.852;25.952;2024-01-07T15:24:16;99435.03;;;10.32;93.08
46944;BME280;32678;43.852;25.952;2024-01-07T15:29:13;99442.75;;;10.35;92.64
46944;BME280;32678;43.852;25.952;2024-01-07T15:34:10;99441.78;;;10.21;92.56
46944;BME280;32678;43.852;25.952;2024-01-07T15:39:07;99435.38;;;10.09;93.04
46944;BME280;32678;43.852;25.952;2024-01-07T15:44:10;99458.47;;;10.35;91.06
46944;BME280;32678;43.852;25.952;2024-01-07T15:49:07;99454.66;;;10.25;91.10
46944;BME280;32678;43.852;25.952;2024-01-07T15:54:04;99454.66;;;9.91;92.77
46944;BME280;32678;43.852;25.952;2024-01-07T15:59:02;99463.38;;;9.91;92.90
46944;BME280;32678;43.852;25.952;2024-01-07T16:03:58;99462.09;;;9.64;94.31
46944;BME280;32678;43.852;25.952;2024-01-07T16:08:56;99460.63;;;9.58;95.10
46944;BME280;32678;43.852;25.952;2024-01-07T16:13:53;99473.09;;;9.36;95.93
46944;BME280;32678;43.852;25.952;2024-01-07T16:18:49;99469.34;;;9.59;94.86
46944;BME280;32678;43.852;25.952;2024-01-07T16:23:46;99480.78;;;9.39;95.75
46944;BME280;32678;43.852;25.952;2024-01-07T16:28:44;99470.47;;;9.36;95.68
46944;BME280;32678;43.852;25.952;2024-01-07T16:33:41;99489.19;;;9.46;94.83
46944;BME280;32678;43.852;25.952;2024-01-07T16:38:38;99493.78;;;9.41;94.75
46944;BME280;32678;43.852;25.952;2024-01-07T16:43:35;99493.84;;;9.03;96.31
46944;BME280;32678;43.852;25.952;2024-01-07T16:48:32;99491.94;;;9.07;96.60
46944;BME280;32678;43.852;25.952;2024-01-07T16:53:32;99507.44;;;9.29;94.94
46944;BME280;32678;43.852;25.952;2024-01-07T16:58:29;99504.34;;;9.21;94.56
46944;BME280;32678;43.852;25.952;2024-01-07T17:03:25;99508.84;;;9.36;93.68
46944;BME280;32678;43.852;25.952;2024-01-07T17:08:28;99523.28;;;9.26;92.79
46944;BME280;32678;43.852;25.952;2024-01-07T17:13:25;99522.59;;;9.22;92.66
46944;BME280;32678;43.852;25.952;2024-01-07T17:18:22;99537.25;;;9.43;91.13
46944;BME280;32678;43.852;25.952;2024-01-07T17:23:18;99538.50;;;9.18;91.91
46944;BME280;32678;43.852;25.952;2024-01-07T17:28:17;99545.34;;;9.01;92.68
46944;BME280;32678;43.852;25.952;2024-01-07T17:33:14;99547.09;;;9.01;92.64
46944;BME280;32678;43.852;25.952;2024-01-07T17:38:11;99545.53;;;8.78;92.76
46944;BME280;32678;43.852;25.952;2024-01-07T17:43:07;99544.38;;;8.65;93.19
46944;BME280;32678;43.852;25.952;2024-01-07T17:48:04;99547.28;;;8.59;93.33
46944;BME280;32678;43.852;25.952;2024-01-07T17:53:03;99556.25;;;8.72;91.72
46944;BME280;32678;43.852;25.952;2024-01-07T17:58:05;99569.50;;;8.49;92.46
46944;BME280;32678;43.852;25.952;2024-01-07T18:03:03;99560.59;;;8.53;92.33
46944;BME280;32678;43.852;25.952;2024-01-07T18:08:02;99563.66;;;8.42;91.93
46944;BME280;32678;43.852;25.952;2024-01-07T18:12:59;99578.13;;;8.31;93.01
46944;BME280;32678;43.852;25.952;2024-01-07T18:17:58;99587.06;;;8.23;93.50
46944;BME280;32678;43.852;25.952;2024-01-07T18:22:58;99590.97;;;8.35;92.44
46944;BME280;32678;43.852;25.952;2024-01-07T18:27:54;99598.34;;;8.66;90.26
46944;BME280;32678;43.852;25.952;2024-01-07T18:32:52;99603.31;;;8.52;91.04
46944;BME280;32678;43.852;25.952;2024-01-07T18:37:48;99605.00;;;8.53;90.63
46944;BME280;32678;43.852;25.952;2024-01-07T18:42:47;99613.03;;;8.48;91.02
46944;BME280;32678;43.852;25.952;2024-01-07T18:47:44;99611.25;;;8.89;88.87
46944;BME280;32678;43.852;25.952;2024-01-07T18:52:41;99614.53;;;8.34;90.66
46944;BME280;32678;43.852;25.952;2024-01-07T18:57:38;99620.81;;;8.30;90.40
46944;BME280;32678;43.852;25.952;2024-01-07T19:02:38;99629.25;;;8.14;90.42
46944;BME280;32678;43.852;25.952;2024-01-07T19:07:34;99632.88;;;8.32;89.30
46944;BME280;32678;43.852;25.952;2024-01-07T19:12:33;99640.47;;;8.38;88.69
46944;BME280;32678;43.852;25.952;2024-01-07T19:17:30;99625.19;;;8.49;88.13
46944;BME280;32678;43.852;25.952;2024-01-07T19:22:26;99641.25;;;8.18;88.96
46944;BME280;32678;43.852;25.952;2024-01-07T19:27:23;99640.00;;;7.85;90.95
46944;BME280;32678;43.852;25.952;2024-01-07T19:32:20;99653.63;;;7.70;90.51
46944;BME280;32678;43.852;25.952;2024-01-07T19:37:17;99656.56;;;7.84;89.65
46944;BME280;32678;43.852;25.952;2024-01-07T19:42:15;99668.22;;;7.75;89.82
46944;BME280;32678;43.852;25.952;2024-01-07T19:47:11;99664.97;;;7.69;88.72
46944;BME280;32678;43.852;25.952;2024-01-07T19:52:09;99666.41;;;7.99;87.61
46944;BME280;32678;43.852;25.952;2024-01-07T19:57:06;99660.47;;;7.72;87.85
46944;BME280;32678;43.852;25.952;2024-01-07T20:02:03;99671.41;;;7.60;88.18
46944;BME280;32678;43.852;25.952;2024-01-07T20:07:00;99681.00;;;7.60;87.40
46944;BME280;32678;43.852;25.952;2024-01-07T20:11:59;99692.16;;;7.40;87.35
46944;BME280;32678;43.852;25.952;2024-01-07T20:16:56;99699.13;;;7.63;86.55
46944;BME280;32678;43.852;25.952;2024-01-07T20:21:53;99705.16;;;7.18;88.45
46944;BME280;32678;43.852;25.952;2024-01-07T20:26:50;99701.56;;;7.44;88.06
46944;BME280;32678;43.852;25.952;2024-01-07T20:31:47;99710.78;;;7.06;88.84
46944;BME280;32678;43.852;25.952;2024-01-07T20:36:45;99707.97;;;7.35;88.14
46944;BME280;32678;43.852;25.952;2024-01-07T20:41:42;99709.38;;;7.44;87.40
46944;BME280;32678;43.852;25.952;2024-01-07T20:46:40;99709.03;;;7.07;87.55
46944;BME280;32678;43.852;25.952;2024-01-07T20:51:37;99713.59;;;7.00;87.39
46944;BME280;32678;43.852;25.952;2024-01-07T20:56:33;99722.00;;;6.83;87.55
46944;BME280;32678;43.852;25.952;2024-01-07T21:01:30;99730.38;;;6.67;88.72
46944;BME280;32678;43.852;25.952;2024-01-07T21:06:28;99732.44;;;6.83;87.37
46944;BME280;32678;43.852;25.952;2024-01-07T21:11:26;99722.19;;;7.04;85.67
46944;BME280;32678;43.852;25.952;2024-01-07T21:16:22;99716.22;;;7.23;84.57
46944;BME280;32678;43.852;25.952;2024-01-07T21:21:19;99715.16;;;7.29;83.67
46944;BME280;32678;43.852;25.952;2024-01-07T21:26:15;99721.31;;;6.78;86.52
46944;BME280;32678;43.852;25.952;2024-01-07T21:31:18;99716.03;;;7.05;85.61
46944;BME280;32678;43.852;25.952;2024-01-07T21:36:14;99740.66;;;6.96;85.40
46944;BME280;32678;43.852;25.952;2024-01-07T21:41:12;99744.44;;;7.12;84.61
46944;BME280;32678;43.852;25.952;2024-01-07T21:46:09;99740.72;;;7.19;83.11
46944;BME280;32678;43.852;25.952;2024-01-07T21:51:07;99765.53;;;6.80;84.86
46944;BME280;32678;43.852;25.952;2024-01-07T21:56:04;99774.00;;;6.86;83.63
46944;BME280;32678;43.852;25.952;2024-01-07T22:01:01;99782.03;;;6.54;84.65
46944;BME280;32678;43.852;25.952;2024-01-07T22:05:59;99784.56;;;6.56;85.13
46944;BME280;32678;43.852;25.952;2024-01-07T22:10:56;99785.97;;;6.66;84.60
46944;BME280;32678;43.852;25.952;2024-01-07T22:15:53;99780.72;;;6.67;83.40
46944;BME280;32678;43.852;25.952;2024-01-07T22:20:49;99810.53;;;6.59;85.00
46944;BME280;32678;43.852;25.952;2024-01-07T22:25:46;99795.50;;;6.67;84.34
46944;BME280;32678;43.852;25.952;2024-01-07T22:30:43;99812.97;;;6.63;84.82
46944;BME280;32678;43.852;25.952;2024-01-07T22:35:40;99809.66;;;6.84;82.69
46944;BME280;32678;43.852;25.952;2024-01-07T22:40:37;99804.72;;;6.77;82.88
46944;BME280;32678;43.852;25.952;2024-01-07T22:45:33;99808.97;;;6.53;83.36
46944;BME280;32678;43.852;25.952;2024-01-07T22:50:31;99799.09;;;6.63;82.42
46944;BME280;32678;43.852;25.952;2024-01-07T22:55:28;99809.88;;;6.24;82.70
46944;BME280;32678;43.852;25.952;2024-01-07T23:00:24;99797.44;;;6.32;82.44
46944;BME280;32678;43.852;25.952;2024-01-07T23:05:21;99788.47;;;6.15;83.13
46944;BME280;32678;43.852;25.952;2024-01-07T23:10:19;99791.88;;;6.44;81.34
46944;BME280;32678;43.852;25.952;2024-01-07T23:15:15;99800.22;;;5.98;82.81
46944;BME280;32678;43.852;25.952;2024-01-07T23:20:12;99815.41;;;6.12;82.44
46944;BME280;32678;43.852;25.952;2024-01-07T23:25:09;99827.50;;;6.15;83.27
46944;BME280;32678;43.852;25.952;2024-01-07T23:30:07;99831.09;;;6.11;82.92
46944;BME280;32678;43.852;25.952;2024-01-07T23:35:04;99845.16;;;6.05;83.64
46944;BME280;32678;43.852;25.952;2024-01-07T23:40:01;99853.69;;;6.38;83.18
46944;BME280;32678;43.852;25.952;2024-01-07T23:44:57;99854.47;;;6.12;84.95
46944;BME280;32678;43.852;25.952;2024-01-07T23:49:55;99871.59;;;5.90;85.45
46944;BME280;32678;43.852;25.952;2024-01-07T23:54:52;99872.28;;;5.62;84.50
46944;BME280;32678;43.852;25.952;2024-01-07T23:59:48;99889.75;;;5.59;84.58
